Time;durP1;ratioP1;P1;durP2;ratioP2;P2;SDS_P1;SDS_P2;PMS_P1;PMS_P2;Temp;Humidity;BMP_temperature;BMP_pressure;BME280_temperature;BME280_humidity;BME280_pressure;Samples;Min_cycle;Max_cycle;Signal;HPM_P1;HPM_P2
2022/05/26 05:06:29;;;;;;;2.25;0.60;;;14.90;85.70;;;;;;6167975;23;20043;-79
2022/05/26 05:29:02;;;;;;;3.50;0.40;;;15.70;82.20;;;;;;6046557;23;20062;-80
2022/05/26 05:31:47;;;;;;;1.02;0.35;;;15.80;82.10;;;;;;6023256;23;20047;-81
2022/05/26 05:34:33;;;;;;;2.70;0.30;;;15.90;81.70;;;;;;6046144;23;20014;-79
2022/05/26 05:37:01;;;;;;;2.17;0.40;;;16.00;81.30;;;;;;6022700;23;20003;-80
2022/05/26 05:39:28;;;;;;;1.38;0.40;;;16.00;81.10;;;;;;6045596;23;20262;-80
2022/05/26 05:41:58;;;;;;;0.80;0.20;;;16.10;80.70;;;;;;6021946;23;20038;-80
2022/05/26 05:51:37;;;;;;;1.65;0.32;;;16.40;80.40;;;;;;6087239;23;21508;-80
2022/05/26 05:54:03;;;;;;;3.17;0.50;;;16.40;80.30;;;;;;6197641;23;20013;-80
2022/05/26 05:56:29;;;;;;;1.70;0.40;;;16.50;79.70;;;;;;6172945;23;20028;-80
2022/05/26 05:58:55;;;;;;;2.05;0.30;;;16.70;79.20;;;;;;6197646;23;20004;-80
2022/05/26 06:01:22;;;;;;;2.13;0.30;;;16.90;78.80;;;;;;6172041;23;20072;-80
2022/05/26 06:03:47;;;;;;;1.42;0.20;;;17.10;78.00;;;;;;6173699;23;20181;-79
2022/05/26 06:06:14;;;;;;;1.83;0.20;;;17.20;77.50;;;;;;6173571;23;20059;-83
2022/05/26 06:08:40;;;;;;;2.03;0.50;;;17.30;77.20;;;;;;6225211;23;20007;-80
2022/05/26 06:11:06;;;;;;;1.20;0.20;;;17.20;77.60;;;;;;6198637;23;20020;-79
2022/05/26 06:13:31;;;;;;;1.75;0.40;;;17.30;77.50;;;;;;6198403;23;20005;-83
2022/05/26 06:23:12;;;;;;;0.98;0.30;;;17.50;76.70;;;;;;6103895;23;20876;31
2022/05/26 06:25:38;;;;;;;3.90;0.38;;;17.50;76.70;;;;;;6109548;23;20018;-80
2022/05/26 06:30:49;;;;;;;2.25;0.38;;;17.60;76.40;;;;;;6133234;23;20252;-80
2022/05/26 06:38:45;;;;;;;0.88;0.32;;;17.60;76.90;;;;;;6135420;23;20010;-80
2022/05/26 06:47:28;;;;;;;;;;;17.70;76.50;;;;;;6133728;23;20172;-80
2022/05/26 06:49:53;;;;;;;1.73;0.40;;;17.70;77.40;;;;;;6108312;23;19952;-80
2022/05/26 06:58:56;;;;;;;1.83;0.40;;;18.10;76.00;;;;;;6211012;22;20020;-82
2022/05/26 07:01:23;;;;;;;2.08;0.52;;;18.20;75.30;;;;;;6170068;23;20028;-81
2022/05/26 07:03:49;;;;;;;1.60;0.30;;;18.40;75.50;;;;;;6196968;23;20005;-80
2022/05/26 07:06:16;;;;;;;1.77;0.20;;;18.50;74.70;;;;;;6195670;23;19997;-83
2022/05/26 07:08:47;;;;;;;4.93;0.40;;;18.50;74.90;;;;;;6197104;23;20008;-83
2022/05/26 07:11:14;;;;;;;2.97;0.30;;;18.80;74.60;;;;;;6196351;23;20304;-83
2022/05/26 07:17:14;;;;;;;1.73;0.40;;;18.60;74.50;;;;;;6221045;23;20009;-82
2022/05/26 07:19:41;;;;;;;1.00;0.30;;;18.50;74.90;;;;;;6197138;23;20008;-82
2022/05/26 07:22:14;;;;;;;2.40;0.43;;;18.50;75.20;;;;;;6197166;23;19988;-82
2022/05/26 07:24:49;;;;;;;1.52;0.30;;;19.00;74.20;;;;;;6223477;23;20001;-82
2022/05/26 07:27:15;;;;;;;2.22;0.40;;;19.10;73.70;;;;;;6196465;23;20352;-82
2022/05/26 07:29:41;;;;;;;2.33;0.30;;;19.40;73.30;;;;;;6172396;23;20028;-82
2022/05/26 07:32:07;;;;;;;1.50;0.30;;;19.70;71.90;;;;;;6197006;23;20310;-82
2022/05/26 07:34:33;;;;;;;2.25;0.40;;;19.70;71.00;;;;;;6172490;23;20238;-83
2022/05/26 07:43:55;;;;;;;1.97;0.30;;;19.90;70.60;;;;;;6226608;23;20002;-80
2022/05/26 07:46:23;;;;;;;1.92;0.40;;;20.30;69.20;;;;;;6225458;23;20375;-80
2022/05/26 07:48:50;;;;;;;0.70;0.10;;;20.20;68.30;;;;;;6199520;23;20198;-82
2022/05/26 07:51:19;;;;;;;1.98;0.30;;;20.00;69.00;;;;;;6198556;23;20004;-81
2022/05/26 07:53:46;;;;;;;1.55;0.38;;;20.20;69.00;;;;;;6224383;23;19996;-79
2022/05/26 07:56:12;;;;;;;1.92;0.30;;;20.30;68.70;;;;;;6196891;23;20008;-78
2022/05/26 07:58:38;;;;;;;3.55;0.50;;;20.40;68.20;;;;;;6223251;23;20016;-77
2022/05/26 08:01:07;;;;;;;1.48;0.38;;;20.60;68.40;;;;;;6222636;23;20069;-81
2022/05/26 08:03:34;;;;;;;3.00;0.28;;;20.80;67.40;;;;;;6196221;23;20204;-78
2022/05/26 08:06:01;;;;;;;1.23;0.23;;;20.60;67.50;;;;;;6223001;23;20024;-78
2022/05/26 08:16:11;;;;;;;3.53;0.50;;;20.80;67.90;;;;;;6224027;23;20023;-78
2022/05/26 08:18:46;;;;;;;1.52;0.40;;;20.70;68.40;;;;;;6197955;23;20004;-80
2022/05/26 08:21:17;;;;;;;2.08;0.32;;;20.70;68.50;;;;;;6198998;23;20024;-78
2022/05/26 08:23:43;;;;;;;1.45;0.40;;;20.40;68.30;;;;;;6173499;23;20007;-79
2022/05/26 08:26:09;;;;;;;2.10;0.22;;;20.10;68.90;;;;;;6224947;23;20174;-77
2022/05/26 08:28:38;;;;;;;1.90;0.40;;;19.80;70.00;;;;;;6224278;23;20064;-79
2022/05/26 08:31:04;;;;;;;1.98;0.30;;;19.70;70.50;;;;;;6197363;23;20310;-77
2022/05/26 08:33:30;;;;;;;1.27;0.20;;;19.80;70.60;;;;;;6198114;23;20001;-79
2022/05/26 08:36:05;;;;;;;1.70;0.40;;;19.80;70.50;;;;;;6198792;23;20003;-79
2022/05/26 08:38:31;;;;;;;1.58;0.40;;;19.80;70.40;;;;;;6224889;23;20004;-79
2022/05/26 08:52:48;;;;;;;3.22;0.32;;;20.10;70.30;;;;;;6224253;23;20031;-79
2022/05/26 08:55:16;;;;;;;2.13;0.20;;;20.20;70.10;;;;;;6224819;23;19996;-79
2022/05/26 08:57:42;;;;;;;1.25;0.40;;;20.20;70.00;;;;;;6173615;23;20483;-79
2022/05/26 09:00:13;;;;;;;2.22;0.40;;;20.60;69.00;;;;;;6171742;23;20008;-78
2022/05/26 09:02:40;;;;;;;2.65;0.40;;;20.80;68.60;;;;;;6167458;23;20009;-78
2022/05/26 09:16:14;;;;;;;2.75;0.52;;;21.30;67.60;;;;;;6193212;23;20020;-79
2022/05/26 09:18:41;;;;;;;1.90;0.30;;;21.90;67.00;;;;;;6193866;23;20005;-79
2022/05/26 09:21:13;;;;;;;1.55;0.40;;;22.20;65.50;;;;;;6192731;23;20017;-79
2022/05/26 09:23:42;;;;;;;1.83;0.50;;;22.30;65.70;;;;;;6167531;23;20013;-79
2022/05/26 09:26:47;;;;;;;1.25;0.28;;;22.50;65.60;;;;;;6193996;23;20001;-80
2022/05/26 09:29:13;;;;;;;2.30;0.38;;;22.40;64.70;;;;;;6194204;23;20024;-81
2022/05/26 09:31:49;;;;;;;1.27;0.22;;;22.40;65.30;;;;;;6167505;23;20331;-80
2022/05/26 09:34:43;;;;;;;0.75;0.20;;;22.10;64.90;;;;;;6194405;23;20001;-80
2022/05/26 09:37:43;;;;;;;0.90;0.30;;;22.00;65.90;;;;;;6193789;23;20019;-80
2022/05/26 09:40:20;;;;;;;1.38;0.30;;;21.40;67.10;;;;;;6197930;23;20065;-81
2022/05/26 09:42:51;;;;;;;2.28;0.40;;;20.90;68.00;;;;;;6194217;23;20001;-80
2022/05/26 09:45:19;;;;;;;1.45;0.25;;;20.70;68.70;;;;;;6167070;23;20008;-79
2022/05/26 09:47:45;;;;;;;2.70;0.50;;;20.50;69.10;;;;;;6192552;23;19997;-80
2022/05/26 09:50:42;;;;;;;0.98;0.20;;;20.30;69.60;;;;;;6194087;23;20001;-81
2022/05/26 09:53:10;;;;;;;1.40;0.40;;;20.10;70.40;;;;;;6194312;23;20015;-80
2022/05/26 09:55:49;;;;;;;1.35;0.30;;;19.90;71.20;;;;;;6193957;23;20000;-79
2022/05/26 10:02:35;;;;;;;2.67;0.40;;;19.90;71.90;;;;;;6194505;23;20020;-81
2022/05/26 10:05:38;;;;;;;1.88;0.57;;;20.20;71.00;;;;;;6167969;23;20012;-82
2022/05/26 10:08:33;;;;;;;1.92;0.32;;;20.30;70.40;;;;;;6167861;23;20001;-80
2022/05/26 10:11:37;;;;;;;2.42;0.30;;;20.30;70.80;;;;;;6194190;23;20101;-81
2022/05/26 10:14:12;;;;;;;1.90;0.40;;;20.60;70.90;;;;;;6166954;23;20012;-80
2022/05/26 10:17:18;;;;;;;1.85;0.68;;;20.70;70.30;;;;;;6166582;23;20009;-79
2022/05/26 10:20:07;;;;;;;2.28;0.30;;;20.80;69.90;;;;;;6168203;23;20008;-80
2022/05/26 10:23:01;;;;;;;3.67;0.40;;;20.80;69.50;;;;;;6167342;23;20001;-80
2022/05/26 10:26:16;;;;;;;1.55;0.50;;;20.90;69.30;;;;;;6191778;23;20064;-80
2022/05/26 10:32:51;;;;;;;1.60;0.30;;;21.40;67.50;;;;;;6140853;23;20020;-79
2022/05/26 10:39:53;;;;;;;1.25;0.50;;;22.00;66.30;;;;;;6193924;23;20048;-78
2022/05/26 10:43:18;;;;;;;2.53;0.50;;;22.30;66.20;;;;;;6073644;23;20346;-80
2022/05/26 10:45:48;;;;;;;2.85;0.60;;;22.50;64.90;;;;;;6072608;23;20338;-79
2022/05/26 10:48:17;;;;;;;1.80;0.40;;;22.20;66.00;;;;;;6073665;23;20312;-79
2022/05/26 11:00:41;;;;;;;4.30;0.40;;;20.90;68.90;;;;;;6180543;23;20281;-80
2022/05/26 11:03:35;;;;;;;1.85;0.50;;;20.50;69.90;;;;;;6224020;23;19997;-79
2022/05/26 11:06:18;;;;;;;1.88;0.52;;;20.50;70.20;;;;;;6190700;23;20001;-80
2022/05/26 11:08:50;;;;;;;2.60;0.65;;;20.40;70.30;;;;;;6190092;23;20213;-80
2022/05/26 11:11:35;;;;;;;2.60;0.50;;;20.30;70.40;;;;;;6166851;23;20025;-81
2022/05/26 11:17:57;;;;;;;1.80;0.52;;;20.20;70.90;;;;;;6191584;23;20025;-81
2022/05/26 11:21:00;;;;;;;1.40;0.30;;;20.20;70.60;;;;;;6191542;23;20009;-80
2022/05/26 11:23:29;;;;;;;1.88;0.40;;;20.90;69.10;;;;;;6165974;23;20044;-80
2022/05/26 11:26:32;;;;;;;2.47;0.40;;;21.10;68.20;;;;;;6192277;23;19993;-80
2022/05/26 11:29:17;;;;;;;2.38;0.57;;;21.30;68.60;;;;;;6166542;23;20009;-79
2022/05/26 11:38:21;;;;;;;1.77;0.40;;;21.90;68.30;;;;;;6225616;23;20295;-80
2022/05/26 11:41:20;;;;;;;1.17;0.40;;;21.70;67.50;;;;;;6196031;23;20083;-79
2022/05/26 11:44:23;;;;;;;2.05;0.50;;;21.50;67.70;;;;;;6196216;23;20125;-80
2022/05/26 11:46:56;;;;;;;2.60;0.40;;;21.30;68.30;;;;;;6221899;23;20059;-80
2022/05/26 11:49:43;;;;;;;2.58;0.77;;;21.20;68.70;;;;;;6198267;23;20007;-80
2022/05/26 11:57:12;;;;;;;1.08;0.47;;;21.90;68.40;;;;;;6225533;23;20202;-79
2022/05/26 12:15:27;;;;;;;1.85;0.50;;;22.10;66.80;;;;;;6193354;23;20027;-79
2022/05/26 12:17:59;;;;;;;2.42;0.52;;;21.50;68.60;;;;;;6164773;23;20009;-80
2022/05/26 12:20:24;;;;;;;1.95;0.50;;;21.50;69.00;;;;;;6196898;23;20202;-77
2022/05/26 12:22:50;;;;;;;1.95;0.30;;;21.20;69.20;;;;;;6196806;23;20064;-80
2022/05/26 12:25:25;;;;;;;2.05;0.57;;;21.00;70.10;;;;;;6197732;23;19988;-79
2022/05/26 12:27:58;;;;;;;3.03;0.60;;;20.90;70.60;;;;;;6223427;23;20008;-79
2022/05/26 12:30:45;;;;;;;1.77;0.70;;;20.70;71.70;;;;;;6223723;23;20309;-79
2022/05/26 12:33:19;;;;;;;3.15;0.73;;;20.40;72.60;;;;;;6224176;23;20529;-78
2022/05/26 12:36:23;;;;;;;2.55;1.00;;;20.30;73.00;;;;;;6197149;23;20012;-79
2022/05/26 12:39:00;;;;;;;3.72;1.10;;;20.40;73.90;;;;;;6223942;23;20004;-80
2022/05/26 12:41:52;;;;;;;2.88;0.63;;;20.30;74.30;;;;;;6223942;23;20055;-80
2022/05/26 12:44:51;;;;;;;4.55;1.00;;;20.30;74.20;;;;;;6223969;23;20001;-80
2022/05/26 12:47:17;;;;;;;2.97;0.88;;;20.50;74.00;;;;;;6196874;23;20032;-80
2022/05/26 12:49:54;;;;;;;3.92;0.80;;;20.90;73.20;;;;;;6223209;23;19992;-80
2022/05/26 12:52:35;;;;;;;2.57;0.60;;;21.30;72.10;;;;;;6197221;23;20279;-80
2022/05/26 12:55:27;;;;;;;1.83;0.60;;;22.00;70.60;;;;;;6224310;23;20380;-80
2022/05/26 13:01:40;;;;;;;3.65;0.63;;;23.90;65.70;;;;;;6221740;23;20376;-79
2022/05/26 13:04:08;;;;;;;4.82;0.52;;;24.10;64.50;;;;;;6196989;23;20024;-80
2022/05/26 13:06:38;;;;;;;1.45;0.47;;;24.20;64.00;;;;;;6171645;23;20024;-80
2022/05/26 13:09:18;;;;;;;1.42;0.40;;;24.10;64.90;;;;;;6222555;23;20009;-80
2022/05/26 13:11:44;;;;;;;2.10;0.50;;;23.80;65.00;;;;;;6196778;23;20000;-80
2022/05/26 13:14:36;;;;;;;2.17;0.30;;;24.00;65.10;;;;;;6196879;23;19999;-80
2022/05/26 13:17:19;;;;;;;2.03;0.60;;;23.70;64.80;;;;;;6197184;23;20016;-80
2022/05/26 13:19:49;;;;;;;3.30;0.70;;;23.10;66.80;;;;;;6222984;23;20009;-79
2022/05/26 13:22:32;;;;;;;3.03;0.80;;;22.70;67.50;;;;;;6223821;23;20012;-79
2022/05/26 13:25:01;;;;;;;1.35;0.40;;;22.50;68.40;;;;;;6223896;23;20060;-78
2022/05/26 13:27:48;;;;;;;2.83;1.05;;;21.90;69.30;;;;;;6171744;23;20016;-78
2022/05/26 13:33:24;;;;;;;2.20;0.82;;;21.20;71.60;;;;;;6197468;23;20009;-80
2022/05/26 13:35:57;;;;;;;4.10;0.93;;;21.30;72.40;;;;;;6222911;23;20015;-79
2022/05/26 13:38:48;;;;;;;4.82;1.60;;;21.20;73.00;;;;;;6222775;23;20014;-79
2022/05/26 13:41:52;;;;;;;3.97;1.60;;;21.10;72.90;;;;;;6223336;23;20199;-79
2022/05/26 13:44:35;;;;;;;2.00;0.68;;;21.10;72.70;;;;;;6223555;23;20024;-80
2022/05/26 13:47:57;;;;;;;3.58;0.75;;;21.10;72.80;;;;;;6223318;23;20380;-81
2022/05/26 13:50:46;;;;;;;3.88;1.10;;;21.00;73.20;;;;;;6223020;23;19996;-80
2022/05/26 13:53:17;;;;;;;3.15;1.30;;;21.10;73.50;;;;;;6196600;23;20012;-79
2022/05/26 13:55:46;;;;;;;3.35;1.70;;;21.20;73.10;;;;;;6222555;23;20005;-79
2022/05/26 13:58:49;;;;;;;6.10;1.50;;;21.40;72.80;;;;;;6223450;23;20187;-79
2022/05/26 14:01:54;;;;;;;2.70;1.10;;;21.40;72.80;;;;;;6222287;23;20020;-77
2022/05/26 14:04:39;;;;;;;2.33;0.55;;;21.60;72.20;;;;;;6171916;23;20022;-78
2022/05/26 14:07:36;;;;;;;3.85;0.50;;;21.40;72.30;;;;;;6223052;23;20008;-78
2022/05/26 14:10:16;;;;;;;2.85;0.60;;;21.70;71.90;;;;;;6223118;23;20076;-78
2022/05/26 14:12:44;;;;;;;1.95;0.70;;;21.80;71.60;;;;;;6221803;23;20005;-78
2022/05/26 14:15:11;;;;;;;;;;;22.10;71.70;;;;;;6222806;23;20011;-79
2022/05/26 14:17:40;;;;;;;2.00;0.47;;;22.80;70.50;;;;;;6222304;23;20006;-79
2022/05/26 14:20:24;;;;;;;1.95;0.50;;;23.10;67.50;;;;;;6195894;23;20058;-78
2022/05/26 14:22:50;;;;;;;2.03;0.60;;;23.00;67.50;;;;;;6195230;23;20063;-78
2022/05/26 14:25:24;;;;;;;3.22;0.70;;;23.10;67.40;;;;;;6222737;23;20278;-78
2022/05/26 14:28:01;;;;;;;1.40;0.70;;;23.50;65.80;;;;;;6170747;23;20072;-78
2022/05/26 14:30:43;;;;;;;2.67;0.60;;;23.20;67.00;;;;;;6221965;23;20008;-79
2022/05/26 14:33:26;;;;;;;2.20;0.50;;;23.80;66.50;;;;;;6223815;23;20008;-78
2022/05/26 14:35:52;;;;;;;3.38;0.90;;;24.40;64.70;;;;;;6223408;23;20023;-78
2022/05/26 14:38:18;;;;;;;3.83;0.80;;;25.00;63.50;;;;;;6197615;23;20190;-79
2022/05/26 14:40:45;;;;;;;3.53;0.93;;;25.30;62.60;;;;;;6197479;23;20005;-78
2022/05/26 14:43:15;;;;;;;3.83;0.70;;;25.50;63.20;;;;;;6224172;23;20262;-79
2022/05/26 14:45:41;;;;;;;1.33;0.43;;;26.20;62.00;;;;;;6223226;23;20237;-82
2022/05/26 14:48:07;;;;;;;2.15;0.60;;;27.40;58.80;;;;;;6224393;23;20001;-79
2022/05/26 14:50:34;;;;;;;1.52;0.40;;;27.90;58.30;;;;;;6197321;23;20047;-81
2022/05/26 14:53:02;;;;;;;1.20;0.30;;;28.20;57.00;;;;;;6223546;23;20000;-81
2022/05/26 14:55:31;;;;;;;1.73;0.52;;;28.20;56.30;;;;;;6224073;23;20001;-81
2022/05/26 14:58:16;;;;;;;3.17;0.75;;;29.50;55.10;;;;;;6223115;23;19994;-79
2022/05/26 15:00:47;;;;;;;2.75;0.47;;;32.30;52.90;;;;;;6222637;23;20088;-81
2022/05/26 15:03:13;;;;;;;1.05;0.40;;;35.00;50.00;;;;;;6224079;23;20001;-80
2022/05/26 15:05:40;;;;;;;3.50;0.40;;;35.40;47.90;;;;;;6197167;23;20034;-81
2022/05/26 15:08:23;;;;;;;2.78;0.63;;;35.40;47.90;;;;;;6196487;23;20190;-79
2022/05/26 15:10:49;;;;;;;1.70;0.30;;;36.10;47.70;;;;;;6223194;23;19997;-80
2022/05/26 15:13:15;;;;;;;2.35;0.30;;;35.60;47.00;;;;;;6224230;23;20023;-80
2022/05/26 15:15:41;;;;;;;3.35;0.30;;;35.00;47.10;;;;;;6220947;23;20320;-79
2022/05/26 15:18:07;;;;;;;1.15;0.30;;;33.90;48.10;;;;;;6223634;23;20005;-79
2022/05/26 15:20:33;;;;;;;1.70;0.50;;;31.80;50.40;;;;;;6197099;23;20068;-79
2022/05/26 15:22:59;;;;;;;2.63;0.75;;;30.00;52.10;;;;;;6223189;23;20011;-78
2022/05/26 15:25:24;;;;;;;1.92;0.40;;;28.30;54.70;;;;;;6224041;23;20363;-78
2022/05/26 15:27:50;;;;;;;1.75;0.40;;;27.30;56.80;;;;;;6223297;23;20027;-78
2022/05/26 15:30:19;;;;;;;2.35;0.57;;;26.90;56.40;;;;;;6171839;23;20059;-80
2022/05/26 15:32:45;;;;;;;;;;;26.20;58.30;;;;;;6224106;23;20007;-78
2022/05/26 15:35:14;;;;;;;2.17;0.50;;;25.40;59.30;;;;;;6223919;23;20181;-79
2022/05/26 15:37:42;;;;;;;1.25;0.50;;;24.70;59.80;;;;;;6223865;23;20000;-79
2022/05/26 15:40:20;;;;;;;2.45;0.60;;;24.50;60.80;;;;;;6223519;23;20211;-79
2022/05/26 15:42:50;;;;;;;2.47;0.60;;;24.60;61.50;;;;;;6171941;23;20005;-79
2022/05/26 15:45:16;;;;;;;2.90;0.60;;;24.30;62.50;;;;;;6223016;23;20025;-80
2022/05/26 15:47:43;;;;;;;2.45;0.40;;;24.50;62.50;;;;;;6222860;23;20034;-79
2022/05/26 15:50:23;;;;;;;1.75;0.63;;;25.10;61.50;;;;;;6197324;23;20222;-79
2022/05/26 15:52:49;;;;;;;1.98;0.52;;;27.70;58.40;;;;;;6223675;23;20028;-80
2022/05/26 15:55:15;;;;;;;2.78;0.68;;;29.30;55.10;;;;;;6224074;23;20058;-80
2022/05/26 15:57:42;;;;;;;3.05;0.50;;;28.60;55.50;;;;;;6197543;23;20005;-80
2022/05/26 16:00:15;;;;;;;3.20;1.00;;;27.80;56.90;;;;;;6171292;23;20028;-80
2022/05/26 16:02:42;;;;;;;2.97;0.70;;;27.30;58.20;;;;;;6172982;23;20009;-78
2022/05/26 16:05:10;;;;;;;1.85;0.85;;;26.90;58.40;;;;;;6172133;23;20009;-79
2022/05/26 16:07:36;;;;;;;2.95;0.65;;;26.20;59.30;;;;;;6223943;23;19996;-79
2022/05/26 16:10:03;;;;;;;4.60;0.70;;;25.70;60.60;;;;;;6223084;23;20012;-80
2022/05/26 16:12:29;;;;;;;2.13;0.60;;;26.90;59.40;;;;;;6223461;23;20005;-79
2022/05/26 16:14:54;;;;;;;1.42;0.50;;;27.90;58.20;;;;;;6196774;23;20042;-81
2022/05/26 16:17:21;;;;;;;3.05;0.70;;;27.60;57.80;;;;;;6197282;23;20016;-81
2022/05/26 16:19:48;;;;;;;2.28;0.55;;;28.50;56.60;;;;;;6197890;23;20021;-78
2022/05/26 16:22:22;;;;;;;2.58;0.60;;;30.70;54.40;;;;;;6175346;23;20020;-79
2022/05/26 16:24:49;;;;;;;2.60;1.00;;;31.70;52.00;;;;;;6237819;23;20011;-79
2022/05/26 16:27:15;;;;;;;3.38;1.63;;;30.00;53.60;;;;;;6178028;23;20014;-79
2022/05/26 16:29:40;;;;;;;2.30;0.63;;;29.10;55.10;;;;;;6199549;23;20190;-81
2022/05/26 16:32:07;;;;;;;2.03;0.70;;;29.60;55.30;;;;;;6222691;23;20047;-81
2022/05/26 16:34:32;;;;;;;2.42;0.70;;;29.90;54.40;;;;;;6197825;23;20042;-80
2022/05/26 16:37:00;;;;;;;1.90;0.50;;;30.30;53.80;;;;;;6225094;23;20226;-80
2022/05/26 16:39:28;;;;;;;2.27;0.63;;;30.70;54.20;;;;;;6199184;23;19996;-79
2022/05/26 16:41:54;;;;;;;1.08;0.40;;;29.60;54.00;;;;;;6173898;23;20075;-80
2022/05/26 16:44:23;;;;;;;2.08;0.60;;;28.80;55.20;;;;;;6199018;23;20023;-80
2022/05/26 16:46:49;;;;;;;1.33;0.50;;;28.00;55.80;;;;;;6224314;23;20011;-79
2022/05/26 16:49:15;;;;;;;4.05;0.60;;;27.30;57.30;;;;;;6224822;23;20013;-79
2022/05/26 16:51:42;;;;;;;2.45;0.68;;;26.20;58.50;;;;;;6224916;23;20221;-79
2022/05/26 16:54:21;;;;;;;1.38;0.60;;;26.00;59.40;;;;;;6197625;23;19997;-80
2022/05/26 16:56:47;;;;;;;2.95;0.52;;;25.70;59.40;;;;;;6197785;23;20023;-79
2022/05/26 16:59:13;;;;;;;3.83;0.70;;;25.00;60.50;;;;;;6198785;23;20053;-78
2022/05/26 17:01:39;;;;;;;2.15;0.77;;;24.70;61.30;;;;;;6224228;23;20190;-79
2022/05/26 17:04:05;;;;;;;3.20;0.80;;;24.40;61.80;;;;;;6223981;23;20058;-79
2022/05/26 17:06:31;;;;;;;3.03;0.70;;;24.70;62.10;;;;;;6225163;23;20320;-79
2022/05/26 17:08:59;;;;;;;2.20;0.88;;;25.00;60.90;;;;;;6223019;23;20329;-80
2022/05/26 17:11:26;;;;;;;3.90;0.60;;;26.40;59.60;;;;;;6224749;23;19985;-80
2022/05/26 17:22:05;;;;;;;3.97;0.60;;;26.00;59.20;;;;;;6198633;23;20009;-80
2022/05/26 17:24:32;;;;;;;1.20;0.50;;;26.40;58.50;;;;;;6225455;23;20234;-79
2022/05/26 17:27:02;;;;;;;2.75;0.80;;;27.90;56.80;;;;;;6198780;23;20001;-80
2022/05/26 17:29:28;;;;;;;2.13;0.60;;;29.40;54.10;;;;;;6198649;23;20051;-80
2022/05/26 17:31:56;;;;;;;3.83;0.90;;;29.70;53.40;;;;;;6223666;23;20009;-78
2022/05/26 17:34:22;;;;;;;2.30;0.90;;;29.90;53.20;;;;;;6174226;23;20004;-78
2022/05/26 17:36:48;;;;;;;2.03;0.60;;;30.50;52.20;;;;;;6225000;23;20019;-78
2022/05/26 17:39:26;;;;;;;2.03;0.40;;;30.80;52.30;;;;;;6198079;23;20012;-79
2022/05/26 17:41:53;;;;;;;1.58;0.50;;;31.80;50.80;;;;;;6224148;23;20027;-79
2022/05/26 17:44:22;;;;;;;1.77;0.30;;;32.30;50.20;;;;;;6198763;23;20242;-78
2022/05/26 17:46:49;;;;;;;2.03;0.82;;;31.90;50.10;;;;;;6224046;23;20299;-78
2022/05/26 17:49:17;;;;;;;1.75;0.40;;;32.20;50.00;;;;;;6225052;23;20064;-78
2022/05/26 17:51:45;;;;;;;;;;;31.20;50.10;;;;;;6198418;23;20076;-77
2022/05/26 17:54:23;;;;;;;2.30;0.40;;;30.50;51.20;;;;;;6196411;23;19906;-78
2022/05/26 17:56:49;;;;;;;1.88;0.68;;;31.00;51.30;;;;;;6223674;23;20060;-77
2022/05/26 17:59:17;;;;;;;2.72;0.52;;;31.20;51.10;;;;;;6196828;23;20020;-77
2022/05/26 18:01:44;;;;;;;1.92;0.60;;;31.20;50.90;;;;;;6196785;23;20067;-77
2022/05/26 18:04:13;;;;;;;1.10;0.60;;;30.70;51.50;;;;;;6222716;23;20023;-77
2022/05/26 18:06:39;;;;;;;1.85;0.50;;;30.30;52.10;;;;;;6223554;23;19996;-78
2022/05/26 18:09:05;;;;;;;1.25;0.40;;;29.90;52.60;;;;;;6222952;23;20001;-78
2022/05/26 18:11:31;;;;;;;2.03;0.60;;;29.50;53.20;;;;;;6223773;23;20004;-79
2022/05/26 18:13:57;;;;;;;2.78;1.20;;;29.00;53.80;;;;;;6223085;23;20302;-79
2022/05/26 18:16:26;;;;;;;1.77;0.80;;;29.10;53.70;;;;;;6223023;23;20320;-80
2022/05/26 18:19:02;;;;;;;2.45;0.98;;;28.50;54.50;;;;;;6222952;23;20000;-77
2022/05/26 18:25:02;;;;;;;2.65;0.88;;;26.00;58.20;;;;;;6183048;23;20039;-81
2022/05/26 18:32:01;;;;;;;1.98;0.77;;;23.70;63.10;;;;;;6223381;23;20052;-79
2022/05/26 18:34:30;;;;;;;2.58;0.75;;;22.90;65.30;;;;;;6223126;23;20000;-77
2022/05/26 18:37:14;;;;;;;2.25;1.10;;;22.40;66.00;;;;;;6196489;23;20001;-80
2022/05/26 18:43:34;;;;;;;3.28;0.80;;;21.90;67.80;;;;;;6223746;23;20027;-81
2022/05/26 18:46:02;;;;;;;2.13;0.75;;;21.50;68.90;;;;;;6195555;23;20008;-82
2022/05/26 18:48:33;;;;;;;2.58;0.70;;;21.20;69.70;;;;;;6196654;23;20001;-82
2022/05/26 18:51:09;;;;;;;2.50;0.80;;;20.90;70.30;;;;;;6172277;23;19997;-81
2022/05/26 18:53:35;;;;;;;2.33;0.80;;;20.70;71.00;;;;;;6196375;23;20210;-81
2022/05/26 18:56:01;;;;;;;4.43;1.13;;;20.60;71.20;;;;;;6195763;23;19996;-79
2022/05/26 18:58:51;;;;;;;2.33;0.80;;;20.50;71.70;;;;;;6195897;23;20000;-82
2022/05/26 19:01:19;;;;;;;4.10;0.80;;;20.30;72.30;;;;;;6221185;23;20059;-79
2022/05/26 19:03:45;;;;;;;2.83;0.87;;;20.20;72.60;;;;;;6196607;23;20001;-80
2022/05/26 19:06:14;;;;;;;5.20;0.98;;;20.10;73.00;;;;;;6191096;23;20404;-80
2022/05/26 19:08:40;;;;;;;2.20;0.80;;;20.00;73.10;;;;;;6192647;23;20348;-79
2022/05/26 19:11:11;;;;;;;2.50;0.90;;;19.90;73.60;;;;;;6190995;23;20013;-80
2022/05/26 19:13:50;;;;;;;3.58;0.95;;;19.80;74.00;;;;;;6190063;23;20072;-80
2022/05/26 19:16:16;;;;;;;2.97;1.00;;;19.60;74.50;;;;;;6190866;23;20023;-80
2022/05/26 19:18:42;;;;;;;2.45;1.00;;;19.50;75.20;;;;;;6192164;23;20190;-80
2022/05/26 19:21:09;;;;;;;3.33;1.30;;;19.40;75.60;;;;;;6192188;23;20039;-79
2022/05/26 19:23:36;;;;;;;3.55;1.10;;;19.20;75.90;;;;;;6192410;23;20032;-80
2022/05/26 19:26:09;;;;;;;2.97;0.93;;;19.10;75.90;;;;;;6191916;23;20053;-80
2022/05/26 19:28:48;;;;;;;2.42;0.90;;;19.10;76.40;;;;;;6191518;23;20053;-81
2022/05/26 19:31:31;;;;;;;4.20;1.08;;;18.90;76.30;;;;;;6190936;23;20009;-81
2022/05/26 19:34:00;;;;;;;2.55;0.82;;;18.90;76.40;;;;;;6190820;23;20005;-80
2022/05/26 19:36:25;;;;;;;;;;;18.80;76.50;;;;;;6193369;23;20048;-81
2022/05/26 19:38:51;;;;;;;1.80;0.80;;;18.70;76.70;;;;;;6192908;23;19971;-80
2022/05/26 19:41:20;;;;;;;5.65;1.17;;;18.60;77.00;;;;;;6192287;23;20215;-80
2022/05/26 19:43:49;;;;;;;5.10;1.20;;;18.60;76.80;;;;;;6196009;23;20096;-80
2022/05/26 19:46:16;;;;;;;3.50;0.90;;;18.50;77.00;;;;;;6221499;23;20072;-79
2022/05/26 19:48:43;;;;;;;2.03;0.80;;;18.40;77.50;;;;;;6222711;23;20332;-80
2022/05/26 19:51:10;;;;;;;4.80;0.90;;;18.30;77.50;;;;;;6196040;23;20024;-82
2022/05/26 19:53:38;;;;;;;2.35;0.80;;;18.20;77.90;;;;;;6199057;23;20232;-80
2022/05/26 19:56:04;;;;;;;3.45;1.00;;;18.10;77.90;;;;;;6162056;23;20008;-80
2022/05/26 19:58:30;;;;;;;3.92;1.10;;;18.10;78.00;;;;;;6136575;23;20202;-80
2022/05/26 20:00:58;;;;;;;3.50;1.10;;;18.10;78.00;;;;;;6171272;23;20017;-81
2022/05/26 20:03:25;;;;;;;1.73;0.77;;;18.10;78.10;;;;;;6166544;23;20001;-81
2022/05/26 20:05:51;;;;;;;1.92;0.85;;;17.90;78.50;;;;;;6192155;23;20005;-81
2022/05/26 20:08:22;;;;;;;3.53;1.10;;;17.90;78.70;;;;;;6192284;23;20336;-81
2022/05/26 20:10:48;;;;;;;2.63;1.00;;;17.80;79.00;;;;;;6167893;23;20020;-81
2022/05/26 20:17:45;;;;;;;3.53;1.13;;;17.60;79.70;;;;;;6045117;23;20010;-79
2022/05/26 20:20:13;;;;;;;2.65;1.00;;;17.40;79.90;;;;;;6021359;23;20042;-81
2022/05/26 20:22:40;;;;;;;4.15;1.10;;;17.40;80.60;;;;;;6022451;23;20007;-80
2022/05/26 20:25:08;;;;;;;3.65;1.23;;;17.40;80.50;;;;;;6045468;23;20015;-81
2022/05/26 20:27:36;;;;;;;4.03;1.02;;;17.30;81.10;;;;;;6045691;23;20012;-81
2022/05/26 20:30:05;;;;;;;2.78;1.15;;;17.30;81.90;;;;;;6021176;23;20015;-82
2022/05/26 20:32:32;;;;;;;3.58;1.42;;;17.30;81.50;;;;;;6048092;23;20258;-81
2022/05/26 20:34:58;;;;;;;3.60;1.58;;;17.30;81.50;;;;;;6049201;23;20015;-81
2022/05/26 20:37:26;;;;;;;4.35;1.60;;;17.30;82.00;;;;;;6047715;23;20015;-81
2022/05/26 20:39:52;;;;;;;4.50;1.73;;;17.20;82.40;;;;;;6045642;23;20011;-79
2022/05/26 20:42:18;;;;;;;3.17;1.50;;;17.20;82.30;;;;;;6045518;23;20003;-81
2022/05/26 20:44:46;;;;;;;3.05;1.35;;;17.20;82.20;;;;;;6045469;23;20023;-80
2022/05/26 20:47:14;;;;;;;3.00;1.10;;;17.20;82.10;;;;;;6044488;23;20015;-79
2022/05/26 20:49:50;;;;;;;4.22;1.40;;;17.20;82.60;;;;;;6021923;23;20014;-80
2022/05/26 20:52:21;;;;;;;2.88;1.00;;;17.10;83.50;;;;;;6128229;23;20244;-80
2022/05/26 20:54:48;;;;;;;4.32;1.35;;;17.00;82.70;;;;;;6164054;23;20160;-79
2022/05/26 21:01:12;;;;;;;4.82;1.50;;;16.90;83.50;;;;;;6072508;23;20107;-80
2022/05/26 21:03:38;;;;;;;2.42;1.33;;;16.80;83.80;;;;;;6074162;23;20297;-79
2022/05/26 21:06:11;;;;;;;4.13;1.73;;;16.80;84.00;;;;;;6073142;23;20019;-80
2022/05/26 21:08:37;;;;;;;4.88;1.80;;;16.70;84.30;;;;;;6074032;23;20315;-80
2022/05/26 21:11:03;;;;;;;5.60;1.50;;;16.60;84.60;;;;;;6048327;23;20019;-79
2022/05/26 21:13:29;;;;;;;2.65;1.30;;;16.60;84.50;;;;;;6049701;23;20003;-79
2022/05/26 21:15:55;;;;;;;3.58;1.40;;;16.60;84.70;;;;;;6073192;23;20011;-80
2022/05/26 21:18:24;;;;;;;3.78;1.30;;;16.60;84.20;;;;;;6073002;23;20403;-79
2022/05/26 21:20:51;;;;;;;3.55;1.50;;;16.50;85.10;;;;;;6073413;23;20026;-79
2022/05/26 21:23:18;;;;;;;3.67;1.35;;;16.50;85.30;;;;;;6049469;23;20003;-81
2022/05/26 21:25:44;;;;;;;2.33;1.20;;;16.40;85.40;;;;;;6049848;23;20011;-79